Time;durP1;ratioP1;P1;durP2;ratioP2;P2;SDS_P1;SDS_P2;PMS_P1;PMS_P2;Temp;Humidity;BMP_temperature;BMP_pressure;BME280_temperature;BME280_humidity;BME280_pressure;Samples;Min_cycle;Max_cycle;Signal;HPM_P1;HPM_P2
2021/12/23 00:00:56;;;;;;;10.06;3.79;;;;;;;;;;369861;142;867365;-62
2021/12/23 00:01:58;;;;;;;5.36;3.33;;;;;;;;;;369846;143;864900;-61
2021/12/23 00:02:59;;;;;;;5.66;3.35;;;;;;;;;;369951;142;865026;-60
2021/12/23 00:04:01;;;;;;;5.19;3.53;;;;;;;;;;372493;142;864903;-64
2021/12/23 00:05:02;;;;;;;5.45;3.96;;;;;;;;;;374316;143;857330;-60
2021/12/23 00:06:04;;;;;;;7.40;3.89;;;;;;;;;;368491;143;864956;-60
2021/12/23 00:07:06;;;;;;;5.59;3.64;;;;;;;;;;371819;142;858671;-61
2021/12/23 00:08:07;;;;;;;6.04;3.69;;;;;;;;;;371550;142;857087;-61
2021/12/23 00:09:08;;;;;;;6.49;3.84;;;;;;;;;;370299;143;857389;-58
2021/12/23 00:10:11;;;;;;;6.40;3.56;;;;;;;;;;371433;142;857351;-61
2021/12/23 00:11:12;;;;;;;6.97;3.79;;;;;;;;;;371274;142;857344;-59
2021/12/23 00:12:15;;;;;;;5.91;3.89;;;;;;;;;;369329;143;865451;-61
2021/12/23 00:13:17;;;;;;;6.75;4.10;;;;;;;;;;370439;142;865078;-61
2021/12/23 00:14:18;;;;;;;7.85;3.76;;;;;;;;;;369994;141;857215;-61
2021/12/23 00:15:36;;;;;;;6.14;3.68;;;;;;;;;;371226;143;857370;-63
2021/12/23 00:17:25;;;;;;;6.77;3.36;;;;;;;;;;369108;141;857041;-62
2021/12/23 00:17:54;;;;;;;7.61;3.85;;;;;;;;;;358021;143;858052;-61
2021/12/23 00:18:47;;;;;;;6.27;3.85;;;;;;;;;;368505;143;859422;-61
2021/12/23 00:23:47;;;;;;;8.14;3.71;;;;;;;;;;370890;143;857247;-62
2021/12/23 00:24:48;;;;;;;6.08;3.36;;;;;;;;;;370911;141;858105;-61
2021/12/23 00:25:50;;;;;;;8.04;3.56;;;;;;;;;;375264;143;859239;-61
2021/12/23 00:26:52;;;;;;;7.51;3.06;;;;;;;;;;369039;146;866033;-62
2021/12/23 00:27:54;;;;;;;5.78;3.23;;;;;;;;;;371208;141;860727;-61
2021/12/23 00:28:55;;;;;;;9.06;4.37;;;;;;;;;;370349;143;866301;-61
2021/12/23 00:29:57;;;;;;;4.82;3.06;;;;;;;;;;370579;143;857836;-61
2021/12/23 00:30:59;;;;;;;6.52;3.24;;;;;;;;;;373855;142;867038;-62
2021/12/23 00:32:04;;;;;;;5.19;3.51;;;;;;;;;;360449;145;866761;-62
2021/12/23 00:33:04;;;;;;;6.99;3.39;;;;;;;;;;371123;143;857353;-61
2021/12/23 00:34:06;;;;;;;4.62;3.21;;;;;;;;;;369841;143;858880;-62
2021/12/23 00:35:09;;;;;;;4.59;3.31;;;;;;;;;;371163;143;857448;-62
2021/12/23 00:36:12;;;;;;;6.77;3.46;;;;;;;;;;369655;142;859270;-61
2021/12/23 00:37:14;;;;;;;5.44;2.82;;;;;;;;;;369291;143;859021;-62
2021/12/23 00:38:21;;;;;;;4.41;3.03;;;;;;;;;;370166;143;858861;-62
2021/12/23 00:39:19;;;;;;;4.71;3.22;;;;;;;;;;368114;142;857340;-61
2021/12/23 00:40:21;;;;;;;3.70;2.83;;;;;;;;;;367574;143;865708;-61
2021/12/23 00:41:24;;;;;;;7.14;3.41;;;;;;;;;;369220;143;859167;-61
2021/12/23 00:42:25;;;;;;;4.90;3.30;;;;;;;;;;370308;142;858360;-62
2021/12/23 00:43:27;;;;;;;5.97;3.33;;;;;;;;;;369183;143;857864;-61
2021/12/23 00:44:28;;;;;;;5.28;3.27;;;;;;;;;;368784;143;866877;-62
2021/12/23 00:45:30;;;;;;;6.25;3.57;;;;;;;;;;370748;143;865969;-61
2021/12/23 00:46:32;;;;;;;6.39;4.01;;;;;;;;;;368365;142;865072;-61
2021/12/23 00:47:33;;;;;;;8.01;4.09;;;;;;;;;;368408;143;868295;-60
2021/12/23 00:48:39;;;;;;;5.94;3.87;;;;;;;;;;367542;143;865056;-60
2021/12/23 00:49:41;;;;;;;5.09;3.33;;;;;;;;;;371654;142;865196;-61
2021/12/23 00:50:43;;;;;;;11.12;3.93;;;;;;;;;;368655;143;857507;-61
2021/12/23 00:51:44;;;;;;;5.66;3.51;;;;;;;;;;370133;143;858849;-63
2021/12/23 00:52:54;;;;;;;7.92;3.63;;;;;;;;;;373055;142;865701;-61
2021/12/23 00:53:52;;;;;;;6.98;3.90;;;;;;;;;;372019;143;857352;-61
2021/12/23 00:54:52;;;;;;;5.87;3.94;;;;;;;;;;371687;143;859062;-62
2021/12/23 00:55:55;;;;;;;9.84;4.19;;;;;;;;;;371171;143;857413;-62
2021/12/23 00:56:57;;;;;;;7.32;3.74;;;;;;;;;;370401;142;866155;-62
2021/12/23 00:57:59;;;;;;;5.99;3.76;;;;;;;;;;372276;143;857441;-62
2021/12/23 00:59:02;;;;;;;6.34;3.47;;;;;;;;;;366649;145;865052;-62
2021/12/23 01:00:04;;;;;;;7.57;4.23;;;;;;;;;;366365;144;859140;-62
2021/12/23 01:01:06;;;;;;;7.15;3.57;;;;;;;;;;366470;145;858533;-62
2021/12/23 01:02:10;;;;;;;6.01;3.51;;;;;;;;;;370115;144;856379;-62
2021/12/23 01:03:12;;;;;;;5.21;3.46;;;;;;;;;;368253;142;860845;-62
2021/12/23 01:04:13;;;;;;;5.73;3.27;;;;;;;;;;365914;145;857275;-62
2021/12/23 01:05:16;;;;;;;5.49;3.94;;;;;;;;;;371856;145;860522;-62
2021/12/23 01:06:18;;;;;;;5.81;3.14;;;;;;;;;;365021;145;865176;-62
2021/12/23 01:07:20;;;;;;;7.21;4.01;;;;;;;;;;368193;144;857427;-62
2021/12/23 01:08:21;;;;;;;6.76;3.46;;;;;;;;;;366631;145;864998;-62
2021/12/23 01:09:23;;;;;;;4.62;2.47;;;;;;;;;;364785;144;866839;-62
2021/12/23 01:10:25;;;;;;;4.03;2.81;;;;;;;;;;366585;144;858335;-62
2021/12/23 01:11:28;;;;;;;6.70;3.89;;;;;;;;;;369406;144;859219;-62
2021/12/23 01:12:36;;;;;;;4.68;2.77;;;;;;;;;;366074;145;865466;-62
2021/12/23 01:13:33;;;;;;;7.30;3.55;;;;;;;;;;365434;145;858982;-61
2021/12/23 01:14:52;;;;;;;6.51;3.99;;;;;;;;;;360731;148;860707;-62
2021/12/23 01:17:22;;;;;;;6.12;4.04;;;;;;;;;;364873;144;857783;-62
2021/12/23 01:18:08;;;;;;;6.18;3.49;;;;;;;;;;363305;145;859684;-62
2021/12/23 01:19:12;;;;;;;5.82;3.61;;;;;;;;;;365499;145;856575;-61
2021/12/23 01:20:13;;;;;;;6.79;3.42;;;;;;;;;;368274;144;857502;-61
2021/12/23 01:21:17;;;;;;;8.11;3.77;;;;;;;;;;367488;144;857454;-61
2021/12/23 01:22:19;;;;;;;4.55;3.71;;;;;;;;;;366111;144;864985;-61
2021/12/23 01:23:22;;;;;;;8.46;3.51;;;;;;;;;;369974;144;859423;-61
2021/12/23 01:24:28;;;;;;;7.69;3.61;;;;;;;;;;366801;144;865106;-61
2021/12/23 01:25:27;;;;;;;4.62;3.23;;;;;;;;;;366832;145;858639;-61
2021/12/23 01:26:29;;;;;;;6.47;3.77;;;;;;;;;;366479;145;857702;-63
2021/12/23 01:27:30;;;;;;;6.27;3.81;;;;;;;;;;365669;145;857597;-64
2021/12/23 01:28:32;;;;;;;5.29;3.14;;;;;;;;;;370513;144;866310;-61
2021/12/23 01:29:34;;;;;;;6.91;3.97;;;;;;;;;;371112;145;858768;-63
2021/12/23 01:30:37;;;;;;;5.74;3.86;;;;;;;;;;367276;144;858784;-61
2021/12/23 01:31:39;;;;;;;5.31;3.71;;;;;;;;;;366882;144;859101;-61
2021/12/23 01:32:41;;;;;;;7.24;4.29;;;;;;;;;;368936;144;858202;-61
2021/12/23 01:33:42;;;;;;;6.55;3.73;;;;;;;;;;368558;144;865068;-60
2021/12/23 01:34:44;;;;;;;8.71;4.45;;;;;;;;;;367130;144;857428;-61
2021/12/23 01:35:49;;;;;;;10.31;4.13;;;;;;;;;;370578;145;866014;-63
2021/12/23 01:36:49;;;;;;;5.62;4.07;;;;;;;;;;365723;145;864983;-64
2021/12/23 01:37:50;;;;;;;7.59;4.33;;;;;;;;;;366201;145;866137;-61
2021/12/23 01:38:52;;;;;;;8.43;4.23;;;;;;;;;;368328;144;857385;-61
2021/12/23 01:39:53;;;;;;;9.56;4.27;;;;;;;;;;370662;144;865004;-61
2021/12/23 01:40:55;;;;;;;6.61;4.06;;;;;;;;;;366785;144;864943;-61
2021/12/23 01:41:57;;;;;;;10.62;4.91;;;;;;;;;;369864;144;864879;-61
2021/12/23 01:42:59;;;;;;;7.28;4.21;;;;;;;;;;366673;145;865047;-61
2021/12/23 01:44:00;;;;;;;6.91;4.62;;;;;;;;;;365921;144;857404;-62
2021/12/23 01:45:02;;;;;;;6.91;4.09;;;;;;;;;;366525;144;857251;-61
2021/12/23 01:46:04;;;;;;;7.47;4.49;;;;;;;;;;366640;144;859107;-61
2021/12/23 01:47:05;;;;;;;8.37;4.61;;;;;;;;;;358660;148;858860;-61
2021/12/23 01:48:07;;;;;;;7.74;4.05;;;;;;;;;;365174;145;865601;-62
2021/12/23 01:49:08;;;;;;;9.04;4.61;;;;;;;;;;365889;144;858068;-61
2021/12/23 01:50:11;;;;;;;8.07;4.93;;;;;;;;;;367216;145;857986;-59
2021/12/23 01:51:13;;;;;;;9.03;4.55;;;;;;;;;;369185;144;857154;-61
2021/12/23 01:52:15;;;;;;;10.75;5.68;;;;;;;;;;367001;144;857377;-61
2021/12/23 01:53:16;;;;;;;4.21;2.82;;;;;;;;;;368481;145;857387;-63
2021/12/23 01:54:18;;;;;;;8.34;4.92;;;;;;;;;;367505;144;865627;-61
2021/12/23 01:55:19;;;;;;;4.71;3.04;;;;;;;;;;366790;145;865054;-61
2021/12/23 01:56:25;;;;;;;4.77;2.92;;;;;;;;;;367087;145;857431;-61
2021/12/23 01:57:27;;;;;;;7.02;3.97;;;;;;;;;;364584;145;865155;-61
2021/12/23 01:58:29;;;;;;;5.14;3.41;;;;;;;;;;357955;148;857419;-61
2021/12/23 01:59:33;;;;;;;8.50;4.78;;;;;;;;;;371917;141;859433;-61
2021/12/23 02:00:35;;;;;;;4.73;3.08;;;;;;;;;;375918;141;864386;-61
2021/12/23 02:01:41;;;;;;;9.91;4.65;;;;;;;;;;375190;142;857949;-61
2021/12/23 02:02:40;;;;;;;6.86;4.39;;;;;;;;;;374522;141;858992;-61
2021/12/23 02:03:42;;;;;;;9.86;5.01;;;;;;;;;;374378;142;866193;-61
2021/12/23 02:04:43;;;;;;;7.81;4.18;;;;;;;;;;376945;142;865107;-60
2021/12/23 02:05:45;;;;;;;8.00;4.34;;;;;;;;;;378322;141;864892;-62
2021/12/23 02:06:47;;;;;;;8.33;4.41;;;;;;;;;;372327;141;866737;-62
2021/12/23 02:07:48;;;;;;;6.90;3.17;;;;;;;;;;376772;141;866676;-61
2021/12/23 02:08:50;;;;;;;8.90;4.13;;;;;;;;;;375945;142;865920;-61
2021/12/23 02:09:51;;;;;;;3.94;2.72;;;;;;;;;;374300;141;863852;-61
2021/12/23 02:10:54;;;;;;;8.24;4.17;;;;;;;;;;373313;142;864949;-61
2021/12/23 02:11:55;;;;;;;7.41;3.99;;;;;;;;;;374273;142;865013;-64
2021/12/23 02:12:57;;;;;;;8.46;4.24;;;;;;;;;;374914;141;857428;-62
2021/12/23 02:13:58;;;;;;;6.87;4.01;;;;;;;;;;372500;141;867443;-62
2021/12/23 02:15:00;;;;;;;6.91;4.01;;;;;;;;;;373482;142;864953;-62
2021/12/23 02:16:02;;;;;;;8.78;4.26;;;;;;;;;;372950;142;865068;-62
2021/12/23 02:17:03;;;;;;;7.66;4.62;;;;;;;;;;373632;141;865014;-62
2021/12/23 02:18:05;;;;;;;8.55;4.16;;;;;;;;;;374887;141;865708;-62
2021/12/23 02:19:08;;;;;;;6.05;3.93;;;;;;;;;;373446;141;864195;-61
2021/12/23 02:20:11;;;;;;;7.86;4.36;;;;;;;;;;374075;141;857357;-61
2021/12/23 02:21:14;;;;;;;5.19;3.98;;;;;;;;;;371354;141;865520;-61
2021/12/23 02:22:15;;;;;;;7.06;4.22;;;;;;;;;;372949;142;866778;-62
2021/12/23 02:23:17;;;;;;;9.43;4.91;;;;;;;;;;374154;141;859024;-62
2021/12/23 02:24:19;;;;;;;8.07;4.42;;;;;;;;;;375565;141;864987;-61
2021/12/23 02:25:20;;;;;;;6.49;3.82;;;;;;;;;;377825;142;864989;-61
2021/12/23 02:26:22;;;;;;;8.41;4.25;;;;;;;;;;375826;142;865535;-61
2021/12/23 02:27:24;;;;;;;7.79;4.08;;;;;;;;;;374686;141;857391;-61
2021/12/23 02:28:27;;;;;;;8.04;4.44;;;;;;;;;;374359;142;866327;-61
2021/12/23 02:29:28;;;;;;;6.91;4.06;;;;;;;;;;376830;139;865925;-61
2021/12/23 02:30:30;;;;;;;6.32;4.26;;;;;;;;;;375537;141;859198;-62
2021/12/23 02:31:32;;;;;;;5.61;3.65;;;;;;;;;;373719;142;866007;-61
2021/12/23 02:32:35;;;;;;;9.95;4.96;;;;;;;;;;374681;142;857617;-61
2021/12/23 02:33:37;;;;;;;8.41;4.44;;;;;;;;;;377118;141;865094;-63
2021/12/23 02:34:38;;;;;;;6.99;3.98;;;;;;;;;;373978;141;857435;-61
2021/12/23 02:35:40;;;;;;;6.39;4.18;;;;;;;;;;373982;142;860880;-62
2021/12/23 02:36:41;;;;;;;10.39;4.40;;;;;;;;;;374728;142;865585;-62
2021/12/23 02:37:43;;;;;;;8.74;4.51;;;;;;;;;;376712;141;857340;-61
2021/12/23 02:38:44;;;;;;;6.86;4.60;;;;;;;;;;374651;141;857186;-61
2021/12/23 02:39:46;;;;;;;7.12;4.52;;;;;;;;;;378421;142;865134;-62
2021/12/23 02:40:48;;;;;;;7.37;4.27;;;;;;;;;;374191;141;866116;-61
2021/12/23 02:41:49;;;;;;;9.15;4.44;;;;;;;;;;373608;141;865047;-61
2021/12/23 02:42:51;;;;;;;7.08;4.44;;;;;;;;;;373563;142;865557;-61
2021/12/23 02:43:52;;;;;;;7.01;4.28;;;;;;;;;;375499;141;857437;-62
2021/12/23 02:44:54;;;;;;;8.84;4.59;;;;;;;;;;376501;141;865542;-62
2021/12/23 02:45:57;;;;;;;7.97;4.76;;;;;;;;;;371504;142;867474;-61
2021/12/23 02:46:59;;;;;;;7.97;4.64;;;;;;;;;;372512;142;865428;-61
2021/12/23 02:48:01;;;;;;;9.12;4.60;;;;;;;;;;372756;141;857312;-61
2021/12/23 02:49:02;;;;;;;7.45;4.61;;;;;;;;;;373133;141;866016;-61
2021/12/23 02:50:05;;;;;;;9.49;4.87;;;;;;;;;;378472;142;859090;-61
2021/12/23 02:51:08;;;;;;;7.59;5.29;;;;;;;;;;374989;141;859697;-61
2021/12/23 02:52:09;;;;;;;8.51;5.44;;;;;;;;;;374679;141;857423;-61
2021/12/23 02:53:11;;;;;;;8.98;4.36;;;;;;;;;;377912;142;857443;-61
2021/12/23 02:54:12;;;;;;;8.60;4.63;;;;;;;;;;376069;142;857420;-61
2021/12/23 02:55:16;;;;;;;8.08;4.35;;;;;;;;;;373063;142;866799;-61
2021/12/23 02:56:17;;;;;;;8.38;4.83;;;;;;;;;;371911;142;866641;-61
2021/12/23 02:57:19;;;;;;;7.26;4.61;;;;;;;;;;372596;142;865426;-58
2021/12/23 02:58:21;;;;;;;12.98;5.22;;;;;;;;;;373954;141;866075;-59
2021/12/23 02:59:22;;;;;;;8.55;4.21;;;;;;;;;;372938;141;866165;-60
2021/12/23 03:00:24;;;;;;;8.18;4.77;;;;;;;;;;371616;143;866380;-60
2021/12/23 03:01:26;;;;;;;6.05;4.52;;;;;;;;;;354030;148;857930;-61
2021/12/23 03:02:27;;;;;;;7.71;4.82;;;;;;;;;;370369;142;865011;-61
2021/12/23 03:03:29;;;;;;;8.06;4.53;;;;;;;;;;369591;143;867034;-61
2021/12/23 03:04:32;;;;;;;11.31;4.72;;;;;;;;;;366566;144;866448;-61
2021/12/23 03:05:33;;;;;;;7.56;4.47;;;;;;;;;;370357;142;864421;-61
2021/12/23 03:06:35;;;;;;;8.14;4.46;;;;;;;;;;368343;142;857421;-61
2021/12/23 03:07:36;;;;;;;6.39;4.37;;;;;;;;;;373330;143;865360;-61
2021/12/23 03:08:42;;;;;;;5.36;3.95;;;;;;;;;;371870;142;857280;-61
2021/12/23 03:09:45;;;;;;;8.47;5.03;;;;;;;;;;368941;142;866829;-62
2021/12/23 03:10:47;;;;;;;7.64;4.89;;;;;;;;;;370446;144;859055;-61
2021/12/23 03:11:48;;;;;;;8.72;4.67;;;;;;;;;;374428;143;866374;-63
2021/12/23 03:12:50;;;;;;;5.39;3.39;;;;;;;;;;368256;142;864926;-61
2021/12/23 03:13:51;;;;;;;8.57;5.01;;;;;;;;;;370207;144;856941;-63
2021/12/23 03:14:53;;;;;;;6.02;4.04;;;;;;;;;;367586;144;857348;-61
2021/12/23 03:15:54;;;;;;;8.65;4.68;;;;;;;;;;369717;142;857521;-62
2021/12/23 03:16:56;;;;;;;8.06;4.45;;;;;;;;;;374018;142;865015;-61
2021/12/23 03:17:58;;;;;;;6.89;4.55;;;;;;;;;;370044;144;866722;-61
2021/12/23 03:18:59;;;;;;;10.71;5.34;;;;;;;;;;366860;142;865401;-61
2021/12/23 03:20:01;;;;;;;6.57;4.40;;;;;;;;;;369628;142;857567;-61
2021/12/23 03:21:02;;;;;;;7.83;4.56;;;;;;;;;;367671;144;865953;-61
2021/12/23 03:22:04;;;;;;;7.77;4.66;;;;;;;;;;358772;145;865704;-61
2021/12/23 03:23:06;;;;;;;8.98;5.16;;;;;;;;;;369521;142;859048;-62
2021/12/23 03:24:07;;;;;;;6.46;4.38;;;;;;;;;;368415;142;857808;-62
2021/12/23 03:25:09;;;;;;;8.82;4.09;;;;;;;;;;372303;144;857477;-62
2021/12/23 03:26:11;;;;;;;7.97;4.91;;;;;;;;;;371858;142;865848;-61
2021/12/23 03:27:12;;;;;;;9.40;5.14;;;;;;;;;;368614;142;856325;-61
2021/12/23 03:28:14;;;;;;;8.13;5.06;;;;;;;;;;367462;144;863712;-61
2021/12/23 03:29:15;;;;;;;7.86;4.43;;;;;;;;;;367455;142;863805;-61
2021/12/23 03:30:17;;;;;;;6.75;4.44;;;;;;;;;;371032;142;863698;-62
2021/12/23 03:31:19;;;;;;;5.11;3.33;;;;;;;;;;369180;142;863792;-61
2021/12/23 03:32:20;;;;;;;7.66;4.09;;;;;;;;;;374334;144;863652;-61
2021/12/23 03:33:22;;;;;;;8.35;4.51;;;;;;;;;;369051;142;856136;-61
2021/12/23 03:34:23;;;;;;;5.96;4.54;;;;;;;;;;370932;142;863707;-61
2021/12/23 03:35:25;;;;;;;6.21;4.23;;;;;;;;;;368452;144;864424;-61
2021/12/23 03:36:27;;;;;;;7.05;4.43;;;;;;;;;;370726;142;864064;-61
2021/12/23 03:37:28;;;;;;;6.45;4.65;;;;;;;;;;368751;142;856330;-61
2021/12/23 03:38:30;;;;;;;7.29;4.42;;;;;;;;;;374184;142;863900;-61
2021/12/23 03:39:31;;;;;;;8.47;4.46;;;;;;;;;;369988;144;856532;-61
2021/12/23 03:40:33;;;;;;;7.42;3.84;;;;;;;;;;369067;142;864088;-61
2021/12/23 03:41:35;;;;;;;8.13;4.61;;;;;;;;;;368861;143;863867;-61
2021/12/23 03:42:37;;;;;;;6.57;4.11;;;;;;;;;;372535;143;856309;-61
2021/12/23 03:43:38;;;;;;;7.84;4.68;;;;;;;;;;370191;142;863852;-61
2021/12/23 03:44:40;;;;;;;8.04;4.34;;;;;;;;;;370072;142;863881;-61
2021/12/23 03:45:45;;;;;;;10.04;5.09;;;;;;;;;;366037;144;856234;-61
2021/12/23 03:47:48;;;;;;;6.95;4.47;;;;;;;-11.48;66.62;100773.72;372204;142;880836;-62
2021/12/23 03:48:50;;;;;;;9.84;4.83;;;;;;;-11.46;66.52;100780.61;360021;147;857033;-61
2021/12/23 03:49:52;;;;;;;7.87;4.57;;;;;;;-11.64;66.65;100778.89;361411;147;864953;-62
2021/12/23 03:50:54;;;;;;;6.16;4.27;;;;;;;-11.46;66.71;100777.24;365048;147;857063;-61
2021/12/23 03:51:56;;;;;;;9.50;5.61;;;;;;;-11.35;66.37;100786.63;365757;146;857370;-62
2021/12/23 03:52:57;;;;;;;6.89;4.84;;;;;;;-11.32;66.04;100784.41;363875;147;859017;-61
2021/12/23 03:53:59;;;;;;;9.86;4.75;;;;;;;-11.26;66.18;100781.58;365607;146;859008;-61
2021/12/23 03:55:01;;;;;;;6.85;4.79;;;;;;;-11.15;66.25;100782.58;364485;145;857979;-61
2021/12/23 03:56:03;;;;;;;8.50;4.78;;;;;;;-11.05;66.01;100777.69;361088;147;859264;-63
2021/12/23 03:57:05;;;;;;;10.85;4.64;;;;;;;-10.94;65.82;100773.67;359778;147;857363;-61
2021/12/23 03:58:07;;;;;;;8.97;4.44;;;;;;;-10.84;65.23;100787.88;365352;147;859056;-61
2021/12/23 03:59:09;;;;;;;7.51;4.59;;;;;;;-10.77;64.90;100776.83;364007;146;856457;-60
2021/12/23 04:00:12;;;;;;;7.07;4.57;;;;;;;-10.71;64.76;100785.75;360383;147;857431;-60
2021/12/23 04:01:14;;;;;;;8.45;5.34;;;;;;;;;;362390;147;859154;-61
2021/12/23 04:02:15;;;;;;;7.08;4.61;;;;;;;;;;363121;146;857337;-61
2021/12/23 04:03:17;;;;;;;9.32;4.43;;;;;;;;;;361391;147;865731;-62
2021/12/23 04:08:10;;;;;;;7.85;4.45;;;;;;;-10.66;63.61;100791.19;370682;142;875036;-63
2021/12/23 04:09:12;;;;;;;6.01;4.00;;;;;;;;;;364582;145;860306;-62
2021/12/23 04:10:14;;;;;;;8.01;4.19;;;;;;;;;;361843;147;857391;-62
2021/12/23 04:11:16;;;;;;;7.25;4.57;;;;;;;;;;360756;146;857345;-62
2021/12/23 04:24:39;;;;;;;6.31;3.45;;;;;;;-10.70;64.38;100799.16;372889;142;872286;-65
2021/12/23 04:25:41;;;;;;;7.81;3.81;;;;;;;;;;363044;147;857571;-65
2021/12/23 04:26:42;;;;;;;9.89;4.70;;;;;;;;;;365389;146;857752;-65
2021/12/23 04:27:44;;;;;;;9.32;4.13;;;;;;;;;;358852;148;865109;-66
2021/12/23 04:28:46;;;;;;;6.01;4.20;;;;;;;;;;360645;148;857381;-66
2021/12/23 04:29:48;;;;;;;8.40;4.99;;;;;;;;;;361435;147;857345;-65
2021/12/23 04:30:50;;;;;;;9.54;4.68;;;;;;;;;;361548;148;857413;-65
2021/12/23 04:31:51;;;;;;;8.31;4.79;;;;;;;;;;360466;148;866889;-65
2021/12/23 04:32:53;;;;;;;9.99;5.36;;;;;;;;;;360583;147;866695;-66
2021/12/23 04:33:54;;;;;;;7.45;4.64;;;;;;;;;;359894;147;866147;-65
2021/12/23 04:34:56;;;;;;;7.73;4.65;;;;;;;;;;356671;148;865071;-65
2021/12/23 04:35:57;;;;;;;10.89;5.25;;;;;;;;;;360412;147;864851;-65
2021/12/23 04:36:59;;;;;;;8.06;5.58;;;;;;;;;;358856;147;865100;-65
2021/12/23 04:38:01;;;;;;;9.35;5.24;;;;;;;;;;359267;148;864955;-65
2021/12/23 04:39:02;;;;;;;10.21;5.73;;;;;;;;;;361258;147;865152;-64
2021/12/23 04:40:06;;;;;;;9.30;5.35;;;;;;;;;;361589;147;857111;-66
2021/12/23 04:41:08;;;;;;;10.26;6.08;;;;;;;;;;363808;147;856187;-66
2021/12/23 04:42:09;;;;;;;12.91;5.68;;;;;;;;;;360984;148;857509;-65
2021/12/23 04:43:11;;;;;;;9.96;5.72;;;;;;;;;;358037;148;865171;-65
2021/12/23 04:44:13;;;;;;;8.32;4.98;;;;;;;;;;362222;147;866346;-65
2021/12/23 04:45:14;;;;;;;9.86;5.28;;;;;;;;;;360187;148;865671;-66
2021/12/23 04:46:16;;;;;;;10.73;5.68;;;;;;;;;;358233;147;867382;-65
2021/12/23 04:47:18;;;;;;;10.02;5.27;;;;;;;;;;359916;147;858774;-65
2021/12/23 04:48:20;;;;;;;10.41;4.64;;;;;;;;;;361266;148;859333;-65
2021/12/23 04:49:23;;;;;;;12.34;5.68;;;;;;;;;;360995;148;865139;-66
2021/12/23 04:50:25;;;;;;;9.44;5.07;;;;;;;;;;359974;147;865172;-65
2021/12/23 04:51:26;;;;;;;9.28;5.06;;;;;;;;;;359930;147;858856;-64
2021/12/23 04:52:28;;;;;;;7.76;4.49;;;;;;;;;;355566;148;865198;-64
2021/12/23 04:53:29;;;;;;;8.13;4.60;;;;;;;;;;361146;148;866699;-64
2021/12/23 04:54:31;;;;;;;9.42;5.14;;;;;;;;;;361220;147;866263;-64
2021/12/23 04:55:32;;;;;;;9.10;4.97;;;;;;;;;;360851;148;864181;-64
2021/12/23 04:56:34;;;;;;;9.21;5.01;;;;;;;;;;357457;147;865087;-65
2021/12/23 04:57:36;;;;;;;11.14;5.24;;;;;;;;;;360642;148;865148;-64
2021/12/23 04:58:38;;;;;;;12.54;4.88;;;;;;;;;;356407;150;866637;-66
2021/12/23 04:59:39;;;;;;;9.12;4.71;;;;;;;;;;355923;148;860007;-65
2021/12/23 05:00:42;;;;;;;7.62;4.43;;;;;;;;;;360964;148;858063;-65
2021/12/23 05:01:44;;;;;;;7.83;4.74;;;;;;;;;;358568;147;864045;-65
2021/12/23 05:02:46;;;;;;;8.87;4.92;;;;;;;;;;360116;148;857507;-64
2021/12/23 05:03:47;;;;;;;10.59;4.59;;;;;;;;;;357628;148;857728;-64
2021/12/23 05:04:52;;;;;;;10.44;5.46;;;;;;;;;;359404;147;859868;-64
2021/12/23 05:05:53;;;;;;;15.50;7.35;;;;;;;;;;360333;147;864909;-65
2021/12/23 05:06:55;;;;;;;15.91;7.04;;;;;;;;;;358342;148;857722;-65
2021/12/23 05:07:57;;;;;;;16.66;7.70;;;;;;;;;;358538;147;867561;-65
2021/12/23 05:08:58;;;;;;;18.05;9.19;;;;;;;;;;358483;147;865855;-65
2021/12/23 05:10:00;;;;;;;20.87;8.72;;;;;;;;;;348128;151;867377;-66
2021/12/23 05:11:01;;;;;;;16.00;8.13;;;;;;;;;;358470;148;865247;-66
2021/12/23 05:12:03;;;;;;;14.76;7.69;;;;;;;;;;359718;147;865187;-65
2021/12/23 05:13:05;;;;;;;14.94;6.51;;;;;;;;;;359140;148;865198;-67
2021/12/23 05:14:07;;;;;;;16.75;7.64;;;;;;;;;;361619;147;859035;-66
2021/12/23 05:15:09;;;;;;;16.81;7.08;;;;;;;;;;358702;147;865562;-67
2021/12/23 05:16:11;;;;;;;22.75;9.43;;;;;;;;;;360572;147;865052;-65
2021/12/23 05:17:12;;;;;;;23.21;9.32;;;;;;;;;;354563;150;864910;-65
2021/12/23 05:18:14;;;;;;;20.99;8.98;;;;;;;;;;360091;148;865601;-65
2021/12/23 05:19:16;;;;;;;22.63;8.79;;;;;;;;;;360700;147;864688;-66
2021/12/23 05:20:18;;;;;;;20.77;9.33;;;;;;;;;;359246;148;864820;-66
2021/12/23 05:21:19;;;;;;;22.35;10.05;;;;;;;;;;360404;147;857302;-65
2021/12/23 05:22:21;;;;;;;25.50;10.63;;;;;;;;;;359566;147;857599;-63
2021/12/23 05:23:23;;;;;;;24.78;11.94;;;;;;;;;;360033;147;857464;-67
2021/12/23 05:24:24;;;;;;;24.51;10.12;;;;;;;;;;358550;148;866100;-64
2021/12/23 05:25:26;;;;;;;26.41;10.69;;;;;;;;;;358861;147;866302;-65
2021/12/23 05:26:29;;;;;;;24.18;10.37;;;;;;;;;;359389;148;866038;-63
2021/12/23 05:27:30;;;;;;;26.31;11.84;;;;;;;;;;361276;148;867260;-64
2021/12/23 05:28:32;;;;;;;23.63;10.96;;;;;;;;;;358067;147;865266;-65
2021/12/23 05:29:34;;;;;;;24.75;9.92;;;;;;;;;;360601;147;866019;-65
2021/12/23 05:30:35;;;;;;;24.29;10.78;;;;;;;;;;360541;148;858811;-66
2021/12/23 05:31:38;;;;;;;32.94;11.96;;;;;;;;;;360904;147;864874;-64
2021/12/23 05:32:41;;;;;;;26.05;11.33;;;;;;;;;;359312;148;866579;-65
2021/12/23 05:33:43;;;;;;;25.53;9.71;;;;;;;;;;358678;147;865806;-65
2021/12/23 05:34:44;;;;;;;23.31;11.00;;;;;;;;;;358523;147;859189;-64
2021/12/23 05:35:46;;;;;;;26.89;12.19;;;;;;;;;;359678;147;866075;-64
2021/12/23 05:36:47;;;;;;;26.59;10.43;;;;;;;;;;358455;147;866917;-65
2021/12/23 05:37:49;;;;;;;24.86;11.87;;;;;;;;;;359022;148;864943;-65
2021/12/23 05:38:51;;;;;;;22.70;10.79;;;;;;;;;;360899;147;864896;-65
2021/12/23 05:39:52;;;;;;;32.34;12.04;;;;;;;;;;362118;148;858796;-65
2021/12/23 05:40:54;;;;;;;24.90;12.18;;;;;;;;;;360918;147;857517;-65
2021/12/23 05:41:55;;;;;;;27.77;11.86;;;;;;;;;;358828;147;864883;-64
2021/12/23 05:42:57;;;;;;;28.31;11.80;;;;;;;;;;360080;147;866807;-65
2021/12/23 05:43:59;;;;;;;36.18;13.30;;;;;;;;;;360612;147;865089;-66
2021/12/23 05:45:01;;;;;;;26.01;12.28;;;;;;;;;;359198;148;857390;-65
2021/12/23 05:46:02;;;;;;;24.77;10.11;;;;;;;;;;360911;148;865391;-66
2021/12/23 05:47:04;;;;;;;31.18;12.89;;;;;;;;;;360519;147;866693;-65
2021/12/23 05:48:06;;;;;;;26.84;11.84;;;;;;;;;;361022;148;867751;-67
2021/12/23 05:49:07;;;;;;;33.63;13.91;;;;;;;;;;352226;150;866149;-65
2021/12/23 05:50:09;;;;;;;32.33;13.46;;;;;;;;;;353091;148;865106;-65
2021/12/23 05:51:11;;;;;;;32.79;13.04;;;;;;;;;;358100;147;857423;-65
2021/12/23 05:52:12;;;;;;;34.27;14.01;;;;;;;;;;358627;148;857355;-64
2021/12/23 05:53:14;;;;;;;28.18;12.30;;;;;;;;;;359280;148;865217;-65
2021/12/23 05:54:16;;;;;;;30.34;12.04;;;;;;;;;;359981;147;857397;-65
2021/12/23 05:55:18;;;;;;;26.13;12.29;;;;;;;;;;357476;148;867038;-66
2021/12/23 05:56:20;;;;;;;25.51;11.20;;;;;;;;;;360839;148;868228;-65
2021/12/23 05:57:22;;;;;;;28.86;12.13;;;;;;;;;;359653;147;857933;-65
2021/12/23 05:58:23;;;;;;;26.69;12.19;;;;;;;;;;361657;147;868240;-65
2021/12/23 05:59:25;;;;;;;26.66;11.69;;;;;;;;;;358628;147;866796;-67
2021/12/23 06:00:28;;;;;;;23.04;11.61;;;;;;;;;;359880;147;866196;-66
2021/12/23 06:01:29;;;;;;;28.34;12.75;;;;;;;;;;359980;147;864984;-64
2021/12/23 06:02:31;;;;;;;27.91;12.34;;;;;;;;;;361554;148;865231;-65
2021/12/23 06:03:33;;;;;;;32.64;12.49;;;;;;;;;;360917;147;866162;-65
2021/12/23 06:04:34;;;;;;;24.52;11.42;;;;;;;;;;360690;147;866650;-65
2021/12/23 06:05:36;;;;;;;30.66;12.58;;;;;;;;;;359991;148;865729;-65
2021/12/23 06:06:38;;;;;;;26.37;11.57;;;;;;;;;;358949;147;865427;-64
2021/12/23 06:07:39;;;;;;;29.11;13.47;;;;;;;;;;360719;147;857328;-66
2021/12/23 06:08:41;;;;;;;28.99;12.01;;;;;;;;;;359196;147;867259;-65
2021/12/23 06:09:43;;;;;;;34.33;13.07;;;;;;;;;;360817;148;857406;-66
2021/12/23 06:10:45;;;;;;;25.25;11.23;;;;;;;;;;360406;147;857528;-65
2021/12/23 06:11:46;;;;;;;23.60;11.25;;;;;;;;;;359744;148;866629;-65
2021/12/23 06:12:48;;;;;;;29.61;11.69;;;;;;;;;;360117;148;865882;-65
2021/12/23 06:13:49;;;;;;;23.89;11.52;;;;;;;;;;361285;148;865084;-65
2021/12/23 06:14:51;;;;;;;27.32;11.65;;;;;;;;;;359817;147;866323;-65
2021/12/23 06:15:52;;;;;;;26.83;11.74;;;;;;;;;;359661;147;865850;-66
2021/12/23 06:16:54;;;;;;;26.26;12.04;;;;;;;;;;356895;148;865152;-65
2021/12/23 06:17:55;;;;;;;29.28;11.79;;;;;;;;;;357609;147;865185;-66
2021/12/23 06:18:57;;;;;;;29.54;12.49;;;;;;;;;;359101;147;863900;-65
2021/12/23 06:19:59;;;;;;;25.63;12.25;;;;;;;;;;358480;148;865538;-66
2021/12/23 06:21:00;;;;;;;26.50;12.01;;;;;;;;;;358928;148;864126;-65
2021/12/23 06:22:02;;;;;;;22.91;10.41;;;;;;;;;;360544;147;864018;-65